sensor_id;sensor_type;location;lat;lon;timestamp;pressure;altitude;pressure_sealevel;temperature;humidity
61500;BME280;47361;49.996;19.918;2023-08-07T00:00:00;97491.83;;;14.4;91
61500;BME280;47361;49.996;19.918;2023-08-07T00:01:00;97492.0;;;14.3;91
61500;BME280;47361;49.996;19.918;2023-08-07T00:04:00;97491.54999999999;;;14.4;91
61500;BME280;47361;49.996;19.918;2023-08-07T00:29:00;97477.92;;;14.3;91
61500;BME280;47361;49.996;19.918;2023-08-07T00:30:00;97478.0;;;14.4;91
61500;BME280;47361;49.996;19.918;2023-08-07T00:32:00;97478.01;;;14.3;91
61500;BME280;47361;49.996;19.918;2023-08-07T00:34:00;97477.26;;;14.4;91
61500;BME280;47361;49.996;19.918;2023-08-07T00:55:00;97467.40999999999;;;14.5;91
61500;BME280;47361;49.996;19.918;2023-08-07T00:56:00;97467.98999999999;;;14.4;91
61500;BME280;47361;49.996;19.918;2023-08-07T01:00:00;97467.85;;;14.5;91
61500;BME280;47361;49.996;19.918;2023-08-07T01:02:00;97469.76;;;14.4;91
61500;BME280;47361;49.996;19.918;2023-08-07T01:04:00;97465.31;;;14.5;91
61500;BME280;47361;49.996;19.918;2023-08-07T01:08:01;97464.45999999999;;;14.4;90
61500;BME280;47361;49.996;19.918;2023-08-07T01:09:00;97465.31;;;14.5;90
61500;BME280;47361;49.996;19.918;2023-08-07T01:13:03;97467.58;;;14.4;90
61500;BME280;47361;49.996;19.918;2023-08-07T01:14:02;97466.58;;;14.5;90
61500;BME280;47361;49.996;19.918;2023-08-07T01:17:01;97471.41;;;14.4;90
61500;BME280;47361;49.996;19.918;2023-08-07T01:20:00;97470.67;;;14.5;90
61500;BME280;47361;49.996;19.918;2023-08-07T01:22:04;97472.66;;;14.4;90
61500;BME280;47361;49.996;19.918;2023-08-07T01:24:00;97464.73;;;14.5;90
61500;BME280;47361;49.996;19.918;2023-08-07T01:30:02;97467.1;;;14.6;90
61500;BME280;47361;49.996;19.918;2023-08-07T01:39:01;97468.91;;;14.7;90
61500;BME280;47361;49.996;19.918;2023-08-07T01:44:00;97465.7;;;14.8;90
61500;BME280;47361;49.996;19.918;2023-08-07T01:55:00;97471.34;;;14.9;89
61500;BME280;47361;49.996;19.918;2023-08-07T01:57:00;97476.79000000001;;;14.8;89
61500;BME280;47361;49.996;19.918;2023-08-07T01:59:00;97473.0;;;14.9;89
61500;BME280;47361;49.996;19.918;2023-08-07T02:12:01;97483.83;;;14.8;88
61500;BME280;47361;49.996;19.918;2023-08-07T02:14:00;97485.58;;;14.9;88
61500;BME280;47361;49.996;19.918;2023-08-07T02:17:00;97480.22;;;14.8;88
61500;BME280;47361;49.996;19.918;2023-08-07T02:19:00;97483.06;;;14.9;89
61500;BME280;47361;49.996;19.918;2023-08-07T02:29:01;97493.8;;;15.0;89
61500;BME280;47361;49.996;19.918;2023-08-07T02:38:00;97492.11;;;14.9;88
61500;BME280;47361;49.996;19.918;2023-08-07T02:39:00;97495.39;;;15.0;87
61500;BME280;47361;49.996;19.918;2023-08-07T02:40:01;97493.87000000001;;;14.9;87
61500;BME280;47361;49.996;19.918;2023-08-07T02:46:00;97494.55;;;14.8;87
61500;BME280;47361;49.996;19.918;2023-08-07T02:51:00;97492.36;;;14.7;87
61500;BME280;47361;49.996;19.918;2023-08-07T02:53:00;97486.22;;;14.6;88
61500;BME280;47361;49.996;19.918;2023-08-07T02:54:00;97487.23;;;14.7;87
61500;BME280;47361;49.996;19.918;2023-08-07T02:56:00;97488.39;;;14.6;88
61500;BME280;47361;49.996;19.918;2023-08-07T03:03:00;97486.17;;;14.5;88
61500;BME280;47361;49.996;19.918;2023-08-07T03:04:00;97487.06;;;14.6;88
61500;BME280;47361;49.996;19.918;2023-08-07T03:07:00;97489.11;;;14.5;88
61500;BME280;47361;49.996;19.918;2023-08-07T03:09:00;97497.6;;;14.6;88
61500;BME280;47361;49.996;19.918;2023-08-07T03:14:00;97503.72;;;14.7;88
61500;BME280;47361;49.996;19.918;2023-08-07T03:28:00;97510.5;;;14.6;87
61500;BME280;47361;49.996;19.918;2023-08-07T03:29:00;97512.84000000001;;;14.7;87
61500;BME280;47361;49.996;19.918;2023-08-07T03:33:00;97514.17;;;14.6;87
61500;BME280;47361;49.996;19.918;2023-08-07T03:34:00;97515.45;;;14.7;87
61500;BME280;47361;49.996;19.918;2023-08-07T03:37:00;97516.35;;;14.6;87
61500;BME280;47361;49.996;19.918;2023-08-07T03:39:00;97520.03;;;14.7;87
61500;BME280;47361;49.996;19.918;2023-08-07T03:41:00;97519.03;;;14.6;87
61500;BME280;47361;49.996;19.918;2023-08-07T03:44:00;97524.15999999999;;;14.7;87
61500;BME280;47361;49.996;19.918;2023-08-07T03:47:00;97523.55;;;14.6;87
61500;BME280;47361;49.996;19.918;2023-08-07T03:49:00;97525.42;;;14.7;87
61500;BME280;47361;49.996;19.918;2023-08-07T03:51:01;97527.15;;;14.6;87
61500;BME280;47361;49.996;19.918;2023-08-07T03:54:00;97528.08;;;14.7;87
61500;BME280;47361;49.996;19.918;2023-08-07T03:55:00;97526.4;;;14.6;88
61500;BME280;47361;49.996;19.918;2023-08-07T04:08:01;97536.71;;;14.5;89
61500;BME280;47361;49.996;19.918;2023-08-07T04:09:00;97534.84999999999;;;14.6;89
61500;BME280;47361;49.996;19.918;2023-08-07T04:12:00;97532.2;;;14.5;90
61500;BME280;47361;49.996;19.918;2023-08-07T04:14:00;97534.55;;;14.6;89
61500;BME280;47361;49.996;19.918;2023-08-07T04:15:00;97535.63;;;14.5;90
61500;BME280;47361;49.996;19.918;2023-08-07T04:18:00;97535.29999999999;;;14.4;91
61500;BME280;47361;49.996;19.918;2023-08-07T04:19:00;97538.39;;;14.5;91
61500;BME280;47361;49.996;19.918;2023-08-07T04:29:00;97535.02;;;14.6;91
61500;BME280;47361;49.996;19.918;2023-08-07T04:34:01;97538.06;;;14.7;91
61500;BME280;47361;49.996;19.918;2023-08-07T04:39:00;97542.90999999999;;;14.8;91
61500;BME280;47361;49.996;19.918;2023-08-07T04:40:00;97545.01000000001;;;14.7;91
61500;BME280;47361;49.996;19.918;2023-08-07T04:41:01;97542.33;;;14.8;91
61500;BME280;47361;49.996;19.918;2023-08-07T04:42:01;97544.08;;;14.7;91
61500;BME280;47361;49.996;19.918;2023-08-07T04:44:00;97543.28;;;14.8;91
61500;BME280;47361;49.996;19.918;2023-08-07T04:48:01;97542.6;;;14.9;91
61500;BME280;47361;49.996;19.918;2023-08-07T04:54:00;97541.45999999999;;;15.0;90
61500;BME280;47361;49.996;19.918;2023-08-07T04:59:01;97547.81;;;15.1;90
61500;BME280;47361;49.996;19.918;2023-08-07T05:01:00;97546.97;;;15.0;90
61500;BME280;47361;49.996;19.918;2023-08-07T05:02:00;97545.06999999999;;;15.1;90
61500;BME280;47361;49.996;19.918;2023-08-07T05:03:00;97547.64;;;15.0;90
61500;BME280;47361;49.996;19.918;2023-08-07T05:04:00;97546.04000000001;;;15.1;89
61500;BME280;47361;49.996;19.918;2023-08-07T05:05:00;97543.98;;;15.0;89
61500;BME280;47361;49.996;19.918;2023-08-07T05:14:01;97555.11;;;14.9;88
61500;BME280;47361;49.996;19.918;2023-08-07T05:15:01;97554.93000000001;;;15.0;88
61500;BME280;47361;49.996;19.918;2023-08-07T05:16:00;97556.34;;;14.9;88
61500;BME280;47361;49.996;19.918;2023-08-07T05:19:00;97558.95000000001;;;15.0;88
61500;BME280;47361;49.996;19.918;2023-08-07T05:21:00;97562.11;;;14.9;88
61500;BME280;47361;49.996;19.918;2023-08-07T05:24:00;97563.89;;;15.0;88
61500;BME280;47361;49.996;19.918;2023-08-07T05:25:01;97559.36;;;14.9;87
61500;BME280;47361;49.996;19.918;2023-08-07T05:28:00;97561.3;;;15.0;88
61500;BME280;47361;49.996;19.918;2023-08-07T05:31:01;97566.49;;;14.9;87
61500;BME280;47361;49.996;19.918;2023-08-07T05:34:00;97566.49;;;15.0;87
61500;BME280;47361;49.996;19.918;2023-08-07T05:44:01;97574.36;;;15.1;86
61500;BME280;47361;49.996;19.918;2023-08-07T05:47:00;97579.57;;;15.0;86
61500;BME280;47361;49.996;19.918;2023-08-07T05:48:00;97579.08;;;15.1;86
61500;BME280;47361;49.996;19.918;2023-08-07T05:49:00;97581.0;;;15.2;86
61500;BME280;47361;49.996;19.918;2023-08-07T05:51:00;97577.22;;;15.1;85
61500;BME280;47361;49.996;19.918;2023-08-07T05:55:01;97582.76;;;15.2;85
61500;BME280;47361;49.996;19.918;2023-08-07T06:00:00;97591.06;;;15.3;84
61500;BME280;47361;49.996;19.918;2023-08-07T06:03:00;97589.57;;;15.2;84
61500;BME280;47361;49.996;19.918;2023-08-07T06:04:00;97590.66;;;15.3;84
61500;BME280;47361;49.996;19.918;2023-08-07T06:09:01;97596.51;;;15.4;83
61500;BME280;47361;49.996;19.918;2023-08-07T06:10:00;97595.59000000001;;;15.3;83
61500;BME280;47361;49.996;19.918;2023-08-07T06:11:01;97598.61;;;15.4;83
61500;BME280;47361;49.996;19.918;2023-08-07T06:21:01;97614.36;;;15.3;82
61500;BME280;47361;49.996;19.918;2023-08-07T06:22:00;97609.95;;;15.4;82
61500;BME280;47361;49.996;19.918;2023-08-07T06:24:00;97614.04;;;15.5;82
61500;BME280;47361;49.996;19.918;2023-08-07T06:33:01;97612.11;;;15.6;81
61500;BME280;47361;49.996;19.918;2023-08-07T06:39:00;97613.53;;;15.7;81
61500;BME280;47361;49.996;19.918;2023-08-07T06:43:00;97612.43;;;15.8;80
61500;BME280;47361;49.996;19.918;2023-08-07T06:47:01;97612.62000000001;;;15.9;81
61500;BME280;47361;49.996;19.918;2023-08-07T06:53:00;97613.78;;;16.0;80
61500;BME280;47361;49.996;19.918;2023-08-07T06:57:00;97617.38;;;16.1;80
61500;BME280;47361;49.996;19.918;2023-08-07T06:59:01;97621.12;;;16.2;79
61500;BME280;47361;49.996;19.918;2023-08-07T07:03:01;97618.33;;;16.3;78
61500;BME280;47361;49.996;19.918;2023-08-07T07:04:01;97617.79000000001;;;16.4;78
61500;BME280;47361;49.996;19.918;2023-08-07T07:06:01;97620.45000000001;;;16.5;78
61500;BME280;47361;49.996;19.918;2023-08-07T07:08:01;97614.5;;;16.6;78
61500;BME280;47361;49.996;19.918;2023-08-07T07:09:01;97617.22;;;16.7;78
61500;BME280;47361;49.996;19.918;2023-08-07T07:10:01;97620.23000000001;;;16.8;78
61500;BME280;47361;49.996;19.918;2023-08-07T07:13:02;97620.11;;;16.9;77
61500;BME280;47361;49.996;19.918;2023-08-07T07:16:01;97619.46;;;16.8;75
61500;BME280;47361;49.996;19.918;2023-08-07T07:17:01;97621.66;;;16.9;76
61500;BME280;47361;49.996;19.918;2023-08-07T07:20:02;97620.33;;;17.0;76
61500;BME280;47361;49.996;19.918;2023-08-07T07:22:01;97622.86;;;17.1;76
61500;BME280;47361;49.996;19.918;2023-08-07T07:25:01;97624.91;;;17.0;74
61500;BME280;47361;49.996;19.918;2023-08-07T07:27:01;97624.06;;;16.9;74
61500;BME280;47361;49.996;19.918;2023-08-07T07:28:01;97630.48999999999;;;17.0;74
61500;BME280;47361;49.996;19.918;2023-08-07T07:30:01;97637.17;;;16.9;75
61500;BME280;47361;49.996;19.918;2023-08-07T07:31:01;97637.25;;;16.8;74
61500;BME280;47361;49.996;19.918;2023-08-07T07:34:01;97642.48999999999;;;16.9;75
61500;BME280;47361;49.996;19.918;2023-08-07T07:39:01;97640.67;;;17.0;75
61500;BME280;47361;49.996;19.918;2023-08-07T07:45:01;97648.77;;;17.1;74
61500;BME280;47361;49.996;19.918;2023-08-07T07:47:01;97650.97;;;17.0;73
61500;BME280;47361;49.996;19.918;2023-08-07T07:50:04;97651.21;;;16.9;73
61500;BME280;47361;49.996;19.918;2023-08-07T07:54:01;97658.37;;;16.8;73
61500;BME280;47361;49.996;19.918;2023-08-07T07:55:01;97658.73;;;16.7;73
61500;BME280;47361;49.996;19.918;2023-08-07T07:56:01;97657.19;;;16.6;73
61500;BME280;47361;49.996;19.918;2023-08-07T07:59:01;97664.08;;;16.5;74
61500;BME280;47361;49.996;19.918;2023-08-07T08:01:01;97661.73999999999;;;16.6;75
61500;BME280;47361;49.996;19.918;2023-08-07T08:02:01;97667.02;;;16.5;75
61500;BME280;47361;49.996;19.918;2023-08-07T08:03:01;97664.06;;;16.6;76
61500;BME280;47361;49.996;19.918;2023-08-07T08:04:01;97664.98;;;16.7;76
61500;BME280;47361;49.996;19.918;2023-08-07T08:07:01;97659.55;;;16.8;74
61500;BME280;47361;49.996;19.918;2023-08-07T08:08:01;97659.79999999999;;;16.9;74
61500;BME280;47361;49.996;19.918;2023-08-07T08:13:01;97669.55;;;17.0;74
61500;BME280;47361;49.996;19.918;2023-08-07T08:19:01;97675.97;;;16.9;72
61500;BME280;47361;49.996;19.918;2023-08-07T08:23:01;97674.51999999999;;;17.0;73
61500;BME280;47361;49.996;19.918;2023-08-07T08:28:01;97679.81;;;17.2;73
61500;BME280;47361;49.996;19.918;2023-08-07T08:30:01;97681.09;;;17.3;73
61500;BME280;47361;49.996;19.918;2023-08-07T08:33:01;97675.17;;;17.5;72
61500;BME280;47361;49.996;19.918;2023-08-07T08:34:01;97676.59999999999;;;17.6;73
61500;BME280;47361;49.996;19.918;2023-08-07T08:35:01;97673.85;;;17.7;73
61500;BME280;47361;49.996;19.918;2023-08-07T08:41:02;97680.08;;;17.6;70
61500;BME280;47361;49.996;19.918;2023-08-07T08:43:01;97674.41;;;17.7;70
61500;BME280;47361;49.996;19.918;2023-08-07T08:47:01;97676.62;;;17.6;70
61500;BME280;47361;49.996;19.918;2023-08-07T08:52:01;97678.5;;;17.5;70
61500;BME280;47361;49.996;19.918;2023-08-07T08:53:01;97683.64;;;17.6;71
61500;BME280;47361;49.996;19.918;2023-08-07T08:54:01;97688.23999999999;;;17.5;70
61500;BME280;47361;49.996;19.918;2023-08-07T08:56:01;97681.86;;;17.4;70
61500;BME280;47361;49.996;19.918;2023-08-07T08:58:01;97691.71;;;17.5;71
61500;BME280;47361;49.996;19.918;2023-08-07T09:02:01;97689.23;;;17.4;70
61500;BME280;47361;49.996;19.918;2023-08-07T09:03:01;97693.5;;;17.5;69
61500;BME280;47361;49.996;19.918;2023-08-07T09:04:01;97688.98000000001;;;17.4;69
61500;BME280;47361;49.996;19.918;2023-08-07T09:07:01;97693.69;;;17.5;71
61500;BME280;47361;49.996;19.918;2023-08-07T09:08:01;97692.85;;;17.6;71
61500;BME280;47361;49.996;19.918;2023-08-07T09:09:01;97695.20999999999;;;17.5;69
61500;BME280;47361;49.996;19.918;2023-08-07T09:12:01;97697.75;;;17.4;69
61500;BME280;47361;49.996;19.918;2023-08-07T09:13:01;97696.36;;;17.5;69
61500;BME280;47361;49.996;19.918;2023-08-07T09:15:01;97693.45;;;17.4;69
61500;BME280;47361;49.996;19.918;2023-08-07T09:18:01;97700.99;;;17.5;69
61500;BME280;47361;49.996;19.918;2023-08-07T09:20:01;97701.95;;;17.4;69
61500;BME280;47361;49.996;19.918;2023-08-07T09:21:01;97700.14;;;17.3;68
61500;BME280;47361;49.996;19.918;2023-08-07T09:22:01;97700.61;;;17.2;68
61500;BME280;47361;49.996;19.918;2023-08-07T09:23:01;97702.5;;;17.3;68
61500;BME280;47361;49.996;19.918;2023-08-07T09:26:01;97701.95999999999;;;17.2;69
61500;BME280;47361;49.996;19.918;2023-08-07T09:27:01;97707.89;;;17.3;71
61500;BME280;47361;49.996;19.918;2023-08-07T09:29:01;97699.86;;;17.4;69
61500;BME280;47361;49.996;19.918;2023-08-07T09:30:01;97708.65;;;17.3;68
61500;BME280;47361;49.996;19.918;2023-08-07T09:32:05;97703.4;;;17.4;69
61500;BME280;47361;49.996;19.918;2023-08-07T09:34:01;97703.34;;;17.5;68
61500;BME280;47361;49.996;19.918;2023-08-07T09:35:02;97702.56000000001;;;17.4;69
61500;BME280;47361;49.996;19.918;2023-08-07T09:36:01;97702.33;;;17.5;69
61500;BME280;47361;49.996;19.918;2023-08-07T09:37:01;97710.77;;;17.4;69
61500;BME280;47361;49.996;19.918;2023-08-07T09:38:01;97699.62000000001;;;17.5;69
61500;BME280;47361;49.996;19.918;2023-08-07T09:40:01;97703.86;;;17.4;68
61500;BME280;47361;49.996;19.918;2023-08-07T09:41:01;97704.36;;;17.5;68
61500;BME280;47361;49.996;19.918;2023-08-07T09:42:01;97707.14;;;17.4;68
61500;BME280;47361;49.996;19.918;2023-08-07T09:43:01;97702.29000000001;;;17.5;68
61500;BME280;47361;49.996;19.918;2023-08-07T09:46:02;97703.11;;;17.6;69
61500;BME280;47361;49.996;19.918;2023-08-07T09:47:01;97703.14;;;17.5;69
61500;BME280;47361;49.996;19.918;2023-08-07T09:49:01;97707.14;;;17.6;69
61500;BME280;47361;49.996;19.918;2023-08-07T09:51:01;97706.86;;;17.5;69
61500;BME280;47361;49.996;19.918;2023-08-07T09:52:01;97704.06;;;17.4;68
61500;BME280;47361;49.996;19.918;2023-08-07T09:58:01;97709.63;;;17.5;70
61500;BME280;47361;49.996;19.918;2023-08-07T09:59:01;97716.06;;;17.6;71
61500;BME280;47361;49.996;19.918;2023-08-07T10:02:01;97714.26;;;17.7;70
61500;BME280;47361;49.996;19.918;2023-08-07T10:03:01;97719.56;;;17.8;70
61500;BME280;47361;49.996;19.918;2023-08-07T10:06:01;97720.84999999999;;;17.9;69
61500;BME280;47361;49.996;19.918;2023-08-07T10:10:01;97714.28;;;17.8;68
61500;BME280;47361;49.996;19.918;2023-08-07T10:11:01;97719.83;;;17.7;68
61500;BME280;47361;49.996;19.918;2023-08-07T10:12:01;97717.47;;;17.6;68
61500;BME280;47361;49.996;19.918;2023-08-07T10:13:01;97716.83;;;17.7;68
61500;BME280;47361;49.996;19.918;2023-08-07T10:14:01;97720.65;;;17.6;68
61500;BME280;47361;49.996;19.918;2023-08-07T10:18:01;97727.59;;;17.7;69
61500;BME280;47361;49.996;19.918;2023-08-07T10:20:01;97728.85;;;17.8;69
61500;BME280;47361;49.996;19.918;2023-08-07T10:22:01;97725.61;;;17.7;67
61500;BME280;47361;49.996;19.918;2023-08-07T10:23:03;97721.24;;;17.9;68
61500;BME280;47361;49.996;19.918;2023-08-07T10:25:01;97716.78;;;18.0;69
61500;BME280;47361;49.996;19.918;2023-08-07T10:26:01;97714.22;;;18.1;69
61500;BME280;47361;49.996;19.918;2023-08-07T10:28:01;97715.81;;;18.2;68
61500;BME280;47361;49.996;19.918;2023-08-07T10:29:02;97716.18999999999;;;18.3;68
61500;BME280;47361;49.996;19.918;2023-08-07T10:30:02;97717.4;;;18.4;69
61500;BME280;47361;49.996;19.918;2023-08-07T10:31:01;97716.03;;;18.5;69
61500;BME280;47361;49.996;19.918;2023-08-07T10:32:01;97719.87000000001;;;18.6;69
61500;BME280;47361;49.996;19.918;2023-08-07T10:33:01;97719.92;;;18.7;67
61500;BME280;47361;49.996;19.918;2023-08-07T10:34:01;97717.19;;;18.6;67
61500;BME280;47361;49.996;19.918;2023-08-07T10:40:01;97722.09;;;18.5;68
61500;BME280;47361;49.996;19.918;2023-08-07T10:41:02;97727.34;;;18.3;68
61500;BME280;47361;49.996;19.918;2023-08-07T10:43:11;97728.95999999999;;;18.2;68
61500;BME280;47361;49.996;19.918;2023-08-07T10:44:01;97729.92;;;18.3;69
61500;BME280;47361;49.996;19.918;2023-08-07T10:46:02;97723.94;;;18.4;68
61500;BME280;47361;49.996;19.918;2023-08-07T10:47:01;97723.85;;;18.5;70
61500;BME280;47361;49.996;19.918;2023-08-07T10:48:01;97715.53;;;18.8;69
61500;BME280;47361;49.996;19.918;2023-08-07T10:50:01;97717.31;;;18.9;68
61500;BME280;47361;49.996;19.918;2023-08-07T10:51:03;97716.33;;;18.7;66
61500;BME280;47361;49.996;19.918;2023-08-07T10:52:03;97720.63;;;18.6;66
61500;BME280;47361;49.996;19.918;2023-08-07T10:55:01;97718.25;;;18.7;68
61500;BME280;47361;49.996;19.918;2023-08-07T10:56:01;97726.11;;;18.6;67
61500;BME280;47361;49.996;19.918;2023-08-07T10:58:01;97721.5;;;18.5;67
61500;BME280;47361;49.996;19.918;2023-08-07T10:59:07;97723.71;;;18.6;67
61500;BME280;47361;49.996;19.918;2023-08-07T11:00:01;97715.20000000001;;;18.7;67
61500;BME280;47361;49.996;19.918;2023-08-07T11:04:05;97731.33;;;18.4;67
61500;BME280;47361;49.996;19.918;2023-08-07T11:05:01;97732.76;;;18.2;68
61500;BME280;47361;49.996;19.918;2023-08-07T11:06:01;97737.45999999999;;;18.1;68
61500;BME280;47361;49.996;19.918;2023-08-07T11:07:01;97730.90999999999;;;18.0;69
61500;BME280;47361;49.996;19.918;2023-08-07T11:09:02;97736.82;;;17.9;69
61500;BME280;47361;49.996;19.918;2023-08-07T11:10:01;97735.35;;;17.8;70
61500;BME280;47361;49.996;19.918;2023-08-07T11:11:03;97735.22;;;17.7;70
61500;BME280;47361;49.996;19.918;2023-08-07T11:13:01;97740.12;;;17.8;71
61500;BME280;47361;49.996;19.918;2023-08-07T11:16:01;97740.19;;;17.9;72
61500;BME280;47361;49.996;19.918;2023-08-07T11:20:01;97745.94;;;18.0;70
61500;BME280;47361;49.996;19.918;2023-08-07T11:23:01;97746.53;;;18.1;71
61500;BME280;47361;49.996;19.918;2023-08-07T11:25:01;97750.17;;;18.0;71
61500;BME280;47361;49.996;19.918;2023-08-07T11:30:01;97747.29999999999;;;17.9;71
61500;BME280;47361;49.996;19.918;2023-08-07T11:32:01;97753.53;;;18.0;71
61500;BME280;47361;49.996;19.918;2023-08-07T11:33:01;97750.45999999999;;;18.2;71
61500;BME280;47361;49.996;19.918;2023-08-07T11:34:01;97749.81;;;18.3;70
61500;BME280;47361;49.996;19.918;2023-08-07T11:36:01;97753.09999999999;;;18.2;70
61500;BME280;47361;49.996;19.918;2023-08-07T11:37:01;97755.0;;;18.1;69
61500;BME280;47361;49.996;19.918;2023-08-07T11:40:01;97760.61;;;18.0;70
61500;BME280;47361;49.996;19.918;2023-08-07T11:41:01;97762.67;;;17.9;70
61500;BME280;47361;49.996;19.918;2023-08-07T11:42:01;97758.63;;;17.8;70
61500;BME280;47361;49.996;19.918;2023-08-07T11:44:01;97763.36;;;17.6;71
61500;BME280;47361;49.996;19.918;2023-08-07T11:45:01;97772.56;;;17.5;72
61500;BME280;47361;49.996;19.918;2023-08-07T11:46:01;97777.06;;;17.4;73
61500;BME280;47361;49.996;19.918;2023-08-07T11:49:01;97777.61;;;17.3;76
61500;BME280;47361;49.996;19.918;2023-08-07T11:50:01;97780.36;;;17.1;76
61500;BME280;47361;49.996;19.918;2023-08-07T11:51:01;97781.59000000001;;;17.0;76
61500;BME280;47361;49.996;19.918;2023-08-07T11:55:01;97787.23;;;16.9;77
61500;BME280;47361;49.996;19.918;2023-08-07T11:57:01;97787.75;;;16.8;77
61500;BME280;47361;49.996;19.918;2023-08-07T12:05:01;97796.48;;;16.7;77
61500;BME280;47361;49.996;19.918;2023-08-07T12:06:02;97800.59;;;16.8;78
61500;BME280;47361;49.996;19.918;2023-08-07T12:08:01;97806.98;;;16.9;78
61500;BME280;47361;49.996;19.918;2023-08-07T12:09:02;97800.28;;;16.8;76
61500;BME280;47361;49.996;19.918;2023-08-07T12:10:01;97804.89;;;16.7;77
61500;BME280;47361;49.996;19.918;2023-08-07T12:11:01;97806.59000000001;;;16.6;77
61500;BME280;47361;49.996;19.918;2023-08-07T12:12:01;97806.34;;;16.7;78
61500;BME280;47361;49.996;19.918;2023-08-07T12:13:01;97810.86;;;16.6;78
61500;BME280;47361;49.996;19.918;2023-08-07T12:15:01;97811.33;;;16.5;78
61500;BME280;47361;49.996;19.918;2023-08-07T12:17:01;97804.6;;;16.4;78
61500;BME280;47361;49.996;19.918;2023-08-07T12:18:01;97813.23;;;16.5;79
61500;BME280;47361;49.996;19.918;2023-08-07T12:21:02;97813.01;;;16.4;79
61500;BME280;47361;49.996;19.918;2023-08-07T12:22:01;97806.19;;;16.5;80
61500;BME280;47361;49.996;19.918;2023-08-07T12:26:01;97815.59;;;16.4;80
61500;BME280;47361;49.996;19.918;2023-08-07T12:28:01;97827.20000000001;;;16.5;81
61500;BME280;47361;49.996;19.918;2023-08-07T12:29:01;97831.98;;;16.4;81
61500;BME280;47361;49.996;19.918;2023-08-07T12:30:01;97826.61;;;16.3;81
61500;BME280;47361;49.996;19.918;2023-08-07T12:33:01;97834.0;;;16.4;81
61500;BME280;47361;49.996;19.918;2023-08-07T12:34:01;97833.22;;;16.2;81
61500;BME280;47361;49.996;19.918;2023-08-07T12:36:01;97846.48;;;16.1;81
61500;BME280;47361;49.996;19.918;2023-08-07T12:39:01;97860.19;;;15.9;76
61500;BME280;47361;49.996;19.918;2023-08-07T12:41:01;97860.6;;;15.8;78
61500;BME280;47361;49.996;19.918;2023-08-07T12:44:01;97869.02;;;15.7;78
61500;BME280;47361;49.996;19.918;2023-08-07T12:45:01;97867.13;;;15.6;79
61500;BME280;47361;49.996;19.918;2023-08-07T12:47:01;97871.59;;;15.5;80
61500;BME280;47361;49.996;19.918;2023-08-07T12:49:01;97868.91;;;15.4;80
61500;BME280;47361;49.996;19.918;2023-08-07T12:51:01;97876.22;;;15.3;82
61500;BME280;47361;49.996;19.918;2023-08-07T12:52:01;97876.06;;;15.4;82
61500;BME280;47361;49.996;19.918;2023-08-07T12:53:01;97876.04;;;15.3;82
61500;BME280;47361;49.996;19.918;2023-08-07T12:54:01;97877.69;;;15.2;82
61500;BME280;47361;49.996;19.918;2023-08-07T13:00:01;97880.28;;;15.3;84
61500;BME280;47361;49.996;19.918;2023-08-07T13:02:01;97878.92;;;15.4;85
61500;BME280;47361;49.996;19.918;2023-08-07T13:06:01;97884.59;;;15.3;85
61500;BME280;47361;49.996;19.918;2023-08-07T13:07:01;97886.15999999999;;;15.4;86
61500;BME280;47361;49.996;19.918;2023-08-07T13:09:01;97886.67;;;15.5;85
61500;BME280;47361;49.996;19.918;2023-08-07T13:10:01;97889.53;;;15.4;86
61500;BME280;47361;49.996;19.918;2023-08-07T13:11:01;97889.61;;;15.5;86
61500;BME280;47361;49.996;19.918;2023-08-07T13:18:01;97892.47;;;15.6;85
61500;BME280;47361;49.996;19.918;2023-08-07T13:19:01;97890.21;;;15.7;85
61500;BME280;47361;49.996;19.918;2023-08-07T13:22:01;97890.97;;;15.8;83
61500;BME280;47361;49.996;19.918;2023-08-07T13:23:01;97899.8;;;15.9;85
61500;BME280;47361;49.996;19.918;2023-08-07T13:28:01;97905.88;;;16.0;85
61500;BME280;47361;49.996;19.918;2023-08-07T13:29:01;97906.9;;;16.1;86
61500;BME280;47361;49.996;19.918;2023-08-07T13:30:01;97909.44;;;16.2;85
61500;BME280;47361;49.996;19.918;2023-08-07T13:32:01;97904.08;;;16.3;83
61500;BME280;47361;49.996;19.918;2023-08-07T13:35:01;97911.7;;;16.2;84
61500;BME280;47361;49.996;19.918;2023-08-07T13:37:01;97912.39;;;16.3;83
61500;BME280;47361;49.996;19.918;2023-08-07T13:41:01;97922.02;;;16.2;82
61500;BME280;47361;49.996;19.918;2023-08-07T13:45:01;97927.53;;;16.1;81
61500;BME280;47361;49.996;19.918;2023-08-07T13:47:01;97929.08;;;16.2;82
61500;BME280;47361;49.996;19.918;2023-08-07T13:49:01;97923.86;;;16.1;82
61500;BME280;47361;49.996;19.918;2023-08-07T13:53:01;97931.26999999999;;;16.2;83
61500;BME280;47361;49.996;19.918;2023-08-07T13:55:01;97931.08;;;16.1;83
61500;BME280;47361;49.996;19.918;2023-08-07T13:56:01;97929.49;;;16.2;83
61500;BME280;47361;49.996;19.918;2023-08-07T13:57:01;97931.84;;;16.3;83
61500;BME280;47361;49.996;19.918;2023-08-07T13:58:01;97933.37;;;16.4;82
61500;BME280;47361;49.996;19.918;2023-08-07T14:00:01;97934.23;;;16.5;82
61500;BME280;47361;49.996;19.918;2023-08-07T14:04:01;97941.97;;;16.4;80
61500;BME280;47361;49.996;19.918;2023-08-07T14:07:01;97940.55;;;16.5;81
61500;BME280;47361;49.996;19.918;2023-08-07T14:09:01;97946.15;;;16.4;79
61500;BME280;47361;49.996;19.918;2023-08-07T14:12:01;97943.03;;;16.3;77
61500;BME280;47361;49.996;19.918;2023-08-07T14:13:01;97940.89;;;16.4;79
61500;BME280;47361;49.996;19.918;2023-08-07T14:16:01;97944.56;;;16.3;78
61500;BME280;47361;49.996;19.918;2023-08-07T14:17:01;97950.36;;;16.4;78
61500;BME280;47361;49.996;19.918;2023-08-07T14:18:01;97950.58;;;16.3;78
61500;BME280;47361;49.996;19.918;2023-08-07T14:22:01;97952.29000000001;;;16.4;78
61500;BME280;47361;49.996;19.918;2023-08-07T14:30:01;97949.59;;;16.3;78